Weather at St Joseph Hospital Heliport

Public forecast

Using degrees Fahrenheit for public forecast. Weather courtesy of forecast.io.

Closest aviation weather report (METAR) to St Joseph Hospital Heliport

Closest report is Martin State Airport, 9.9 nm (18.2 km) ESE. Retrieved 2020/11/24 05:35 UTC (25 minutes ago):

KMTN 240535Z AUTO 25005KT 10SM CLR 06/00 A3028 RMK AO2

Closest aviation forecast (TAF) to St Joseph Hospital Heliport

Closest forecast is Martin State Airport, 9.9 nm (18.2 km) ESE. Retrieved 2020-11-24 00:42 UTC (5 hours ago):

TAF KMTN 232339Z 2400/2424 30013G21KT P6SM FEW050 FM240300 30009KT P6SM FEW250 FM241400 34005KT P6SM FEW250 FM242300 VRB03KT P6SM BKN150 AMD NOT SKED